Time;durP1;ratioP1;P1;durP2;ratioP2;P2;SDS_P1;SDS_P2;PMS_P1;PMS_P2;Temp;Humidity;BMP_temperature;BMP_pressure;BME280_temperature;BME280_humidity;BME280_pressure;Samples;Min_cycle;Max_cycle;Signal;HPM_P1;HPM_P2
2022/10/23 00:00:59;;;;;;;7.55;2.28;;;21.10;99.90;;;;;;5033363;28;20090;-74
2022/10/23 00:03:26;;;;;;;6.10;2.25;;;21.20;99.90;;;;;;5026216;28;20034;-73
2022/10/23 00:05:52;;;;;;;9.48;2.50;;;21.10;99.90;;;;;;5025812;28;20115;-73
2022/10/23 00:08:19;;;;;;;7.00;2.63;;;21.10;99.90;;;;;;5032050;28;20476;-74
2022/10/23 00:10:45;;;;;;;8.00;2.90;;;21.10;99.90;;;;;;5029724;28;20115;-73
2022/10/23 00:13:10;;;;;;;5.75;2.17;;;21.10;99.90;;;;;;5024857;28;20199;-73
2022/10/23 00:15:36;;;;;;;6.97;2.60;;;21.10;99.90;;;;;;5042100;28;20034;-73
2022/10/23 00:18:03;;;;;;;10.20;3.13;;;21.20;99.90;;;;;;5024189;28;20029;-73
2022/10/23 00:20:29;;;;;;;6.32;2.60;;;21.20;99.90;;;;;;5025921;28;20076;-72
2022/10/23 00:22:55;;;;;;;7.63;2.78;;;21.10;99.90;;;;;;5029556;28;20065;-74
2022/10/23 00:25:20;;;;;;;6.35;2.45;;;21.10;99.90;;;;;;5026932;28;20040;-73
2022/10/23 00:27:46;;;;;;;6.60;3.30;;;21.10;99.90;;;;;;5024336;28;20034;-73
2022/10/23 00:30:13;;;;;;;8.50;2.65;;;21.00;99.90;;;;;;5016127;28;20038;-73
2022/10/23 00:32:39;;;;;;;6.03;2.42;;;21.00;99.90;;;;;;5023640;28;20044;-73
2022/10/23 00:35:05;;;;;;;8.88;2.88;;;20.90;99.90;;;;;;5032405;28;20033;-73
2022/10/23 00:37:31;;;;;;;6.53;2.70;;;20.90;99.90;;;;;;5032283;28;20053;-73
2022/10/23 00:39:57;;;;;;;6.63;2.97;;;20.90;99.90;;;;;;5021660;28;20033;-73
2022/10/23 00:42:23;;;;;;;6.65;2.83;;;20.80;99.90;;;;;;5041647;28;20041;-74
2022/10/23 00:44:49;;;;;;;5.93;2.63;;;20.80;99.90;;;;;;5036932;28;20037;-73
2022/10/23 00:47:15;;;;;;;7.03;2.70;;;20.80;99.90;;;;;;5027633;28;20038;-74
2022/10/23 00:49:41;;;;;;;6.15;2.50;;;20.70;99.90;;;;;;5033529;28;20454;-73
2022/10/23 00:52:08;;;;;;;6.95;2.10;;;20.70;99.90;;;;;;5028110;28;20037;-73
2022/10/23 00:54:41;;;;;;;5.88;2.80;;;20.70;99.90;;;;;;5020280;28;20045;-73
2022/10/23 00:57:11;;;;;;;4.65;2.15;;;20.70;99.90;;;;;;5016973;28;20033;-73
2022/10/23 00:59:38;;;;;;;6.30;2.53;;;20.70;99.90;;;;;;5035059;28;20039;-73
2022/10/23 01:02:04;;;;;;;8.85;3.30;;;20.70;99.90;;;;;;5045528;28;20033;-73
2022/10/23 01:04:31;;;;;;;6.53;2.72;;;20.70;99.90;;;;;;5026030;28;20037;-73
2022/10/23 01:07:23;;;;;;;5.85;2.55;;;20.70;99.90;;;;;;5040604;28;20068;-73
2022/10/23 01:10:07;;;;;;;6.88;2.75;;;20.70;99.90;;;;;;5018220;28;20033;-73
2022/10/23 01:12:49;;;;;;;6.47;2.95;;;20.70;99.90;;;;;;5018254;28;20100;-73
2022/10/23 01:15:25;;;;;;;8.20;3.13;;;20.70;99.90;;;;;;5020416;28;20408;-72
2022/10/23 01:18:12;;;;;;;6.95;2.67;;;20.70;99.90;;;;;;5039926;28;20037;-73
2022/10/23 01:21:06;;;;;;;7.63;3.08;;;20.70;99.90;;;;;;5034760;28;20037;-73
2022/10/23 01:23:59;;;;;;;11.10;3.97;;;20.70;99.90;;;;;;5023507;28;20033;-73
2022/10/23 01:27:02;;;;;;;7.30;3.60;;;20.70;99.90;;;;;;5023583;28;20127;-73
2022/10/23 01:29:32;;;;;;;7.60;3.47;;;20.70;99.90;;;;;;5030397;28;20034;-73
2022/10/23 01:32:07;;;;;;;10.35;3.75;;;20.70;99.90;;;;;;5019739;28;20026;-73
2022/10/23 01:34:59;;;;;;;7.53;3.30;;;20.70;99.90;;;;;;5014705;28;20092;-72
2022/10/23 01:37:41;;;;;;;7.90;2.83;;;20.70;99.90;;;;;;5006568;28;20026;-73
2022/10/23 01:40:15;;;;;;;6.93;2.97;;;20.70;99.90;;;;;;5041722;28;20029;-74
2022/10/23 01:42:47;;;;;;;8.82;2.88;;;20.70;99.90;;;;;;5022296;28;20025;-74
2022/10/23 01:45:23;;;;;;;8.18;2.90;;;20.70;99.90;;;;;;5037871;28;20046;-73
2022/10/23 01:47:50;;;;;;;8.73;2.83;;;20.70;99.90;;;;;;5017798;28;20096;-74
2022/10/23 01:50:19;;;;;;;5.68;2.53;;;20.70;99.90;;;;;;5021552;28;20129;-74
2022/10/23 01:52:46;;;;;;;7.68;2.80;;;20.70;99.90;;;;;;5019866;28;20045;-73
2022/10/23 01:55:13;;;;;;;6.25;2.33;;;20.70;99.90;;;;;;5030160;28;20069;-74
2022/10/23 01:57:41;;;;;;;5.80;2.72;;;20.70;99.90;;;;;;5041845;28;20033;-73
2022/10/23 02:00:14;;;;;;;6.10;2.30;;;20.70;99.90;;;;;;5025072;28;20033;-74
2022/10/23 02:02:42;;;;;;;6.47;2.65;;;20.70;99.90;;;;;;5042248;28;20040;-73
2022/10/23 02:05:11;;;;;;;7.72;2.60;;;20.60;99.90;;;;;;5041414;28;20520;-73
2022/10/23 02:07:37;;;;;;;8.90;2.72;;;20.60;99.90;;;;;;5030360;28;20503;-74
2022/10/23 02:10:05;;;;;;;5.20;2.47;;;20.60;99.90;;;;;;5011939;28;20038;-72
2022/10/23 02:12:43;;;;;;;8.90;2.90;;;20.50;99.90;;;;;;5035915;28;20045;-73
2022/10/23 02:15:24;;;;;;;7.28;3.10;;;20.50;99.90;;;;;;5017353;28;20546;-73
2022/10/23 02:17:55;;;;;;;6.15;2.42;;;20.50;99.90;;;;;;5048194;28;20037;-72
2022/10/23 02:20:43;;;;;;;8.65;2.40;;;20.50;99.90;;;;;;5034478;28;20037;-73
2022/10/23 02:23:29;;;;;;;7.68;2.60;;;20.40;99.90;;;;;;5034521;28;20058;-74
2022/10/23 02:26:14;;;;;;;8.13;2.97;;;20.50;99.90;;;;;;5028419;28;20044;-73
2022/10/23 02:28:49;;;;;;;8.63;2.78;;;20.60;99.90;;;;;;5030781;28;20034;-73
2022/10/23 02:31:18;;;;;;;9.05;3.35;;;20.70;99.90;;;;;;5044064;28;20450;-74
2022/10/23 02:33:46;;;;;;;8.98;3.20;;;20.70;99.90;;;;;;5033864;28;20026;-73
2022/10/23 02:36:12;;;;;;;9.43;3.10;;;20.70;99.90;;;;;;5030250;28;20045;-73
2022/10/23 02:38:39;;;;;;;;;;;20.80;99.90;;;;;;5028972;28;20057;-74
2022/10/23 02:41:46;;;;;;;7.00;3.05;;;20.80;99.90;;;;;;5036890;28;19944;-73
2022/10/23 02:44:27;;;;;;;9.50;2.90;;;20.80;99.90;;;;;;5015620;28;20033;-74
2022/10/23 02:47:38;;;;;;;7.90;3.15;;;20.80;99.90;;;;;;5025850;28;20102;-74
2022/10/23 02:50:23;;;;;;;7.07;2.90;;;20.70;99.90;;;;;;5040527;28;20040;-74
2022/10/23 02:53:05;;;;;;;;;;;20.80;99.90;;;;;;5033726;28;20111;-74
2022/10/23 02:55:51;;;;;;;9.15;3.33;;;20.90;99.90;;;;;;5023574;28;19925;-73
2022/10/23 02:58:39;;;;;;;19.30;3.83;;;21.00;99.90;;;;;;5013401;28;20061;-74
2022/10/23 03:01:12;;;;;;;13.15;4.05;;;21.00;99.90;;;;;;5036719;28;20041;-72
2022/10/23 03:03:43;;;;;;;13.75;4.30;;;21.20;99.90;;;;;;5021985;28;20419;-74
2022/10/23 03:06:09;;;;;;;11.48;4.78;;;21.20;99.90;;;;;;5034375;28;20056;-75
2022/10/23 03:08:52;;;;;;;18.13;4.55;;;21.20;99.90;;;;;;5021786;28;20584;-74
2022/10/23 03:11:19;;;;;;;15.02;6.00;;;21.20;99.90;;;;;;5012348;28;20037;-74
2022/10/23 03:13:45;;;;;;;16.45;4.70;;;21.30;99.90;;;;;;5001765;28;20037;-74
2022/10/23 03:16:11;;;;;;;20.25;5.25;;;21.40;99.90;;;;;;5028814;28;20406;-74
2022/10/23 03:18:37;;;;;;;22.15;5.82;;;21.50;99.90;;;;;;5042812;28;20042;-74
2022/10/23 03:21:02;;;;;;;17.52;5.57;;;21.50;99.90;;;;;;5022524;28;20437;-74
2022/10/23 03:23:28;;;;;;;17.55;5.20;;;21.50;99.90;;;;;;5008589;28;20438;-73
2022/10/23 03:25:55;;;;;;;17.80;5.53;;;21.50;99.90;;;;;;5025112;28;20029;-74
2022/10/23 03:28:21;;;;;;;;;;;21.50;99.90;;;;;;5031972;28;20154;-73
2022/10/23 03:30:46;;;;;;;21.67;5.13;;;21.40;99.90;;;;;;5028106;28;20043;-73
2022/10/23 03:33:12;;;;;;;18.23;5.57;;;21.40;99.90;;;;;;5008261;28;25024;-73
2022/10/23 03:35:38;;;;;;;18.15;5.45;;;21.30;99.90;;;;;;5023621;28;20647;-73
2022/10/23 03:38:04;;;;;;;24.48;5.80;;;21.30;99.90;;;;;;5026938;28;20128;-73
2022/10/23 03:40:30;;;;;;;14.70;5.03;;;21.20;99.90;;;;;;5032733;28;20473;-73
2022/10/23 03:42:57;;;;;;;18.27;5.00;;;21.20;99.90;;;;;;5024169;28;20049;-72
2022/10/23 03:45:23;;;;;;;12.38;4.75;;;21.10;99.90;;;;;;5020786;28;20105;-73
2022/10/23 03:47:50;;;;;;;20.23;6.55;;;21.00;99.90;;;;;;5010786;28;20133;-72
2022/10/23 03:50:17;;;;;;;17.55;5.22;;;21.00;99.90;;;;;;5024835;28;20029;-73
2022/10/23 03:52:43;;;;;;;14.73;5.03;;;21.00;99.90;;;;;;5026595;28;20037;-73
2022/10/23 03:55:10;;;;;;;16.30;5.43;;;21.00;99.90;;;;;;5017802;28;20498;-73
2022/10/23 03:57:36;;;;;;;17.05;5.65;;;21.00;99.90;;;;;;5026496;28;20116;-72
2022/10/23 04:00:02;;;;;;;14.57;5.13;;;21.00;99.90;;;;;;5022608;28;20112;-73
2022/10/23 04:02:28;;;;;;;20.45;6.07;;;21.00;99.90;;;;;;5041842;28;20041;-73
2022/10/23 04:04:54;;;;;;;23.30;6.90;;;21.10;99.90;;;;;;5020129;28;20041;-74
2022/10/23 04:07:20;;;;;;;20.35;6.55;;;21.10;99.90;;;;;;5027196;28;20043;-73
2022/10/23 04:09:45;;;;;;;16.30;6.40;;;21.20;99.90;;;;;;5031552;28;20033;-74
2022/10/23 04:12:11;;;;;;;18.70;6.03;;;21.20;99.90;;;;;;5026077;28;20041;-73
2022/10/23 04:14:37;;;;;;;21.45;6.45;;;21.30;99.90;;;;;;5019163;28;20036;-74
2022/10/23 04:17:03;;;;;;;24.77;6.95;;;21.30;99.90;;;;;;5038106;28;20030;-73
2022/10/23 04:19:30;;;;;;;22.38;7.05;;;21.30;99.90;;;;;;5023187;28;20041;-74
2022/10/23 04:21:56;;;;;;;21.30;6.45;;;21.40;99.90;;;;;;5028431;28;20498;-73
2022/10/23 04:24:23;;;;;;;22.15;6.53;;;21.40;99.90;;;;;;5025429;28;20116;-73
2022/10/23 04:26:49;;;;;;;23.38;6.53;;;21.40;99.90;;;;;;5038374;28;20037;-73
2022/10/23 04:29:15;;;;;;;18.88;6.00;;;21.40;99.90;;;;;;5034090;28;20033;-73
2022/10/23 04:31:41;;;;;;;25.02;6.82;;;21.40;99.90;;;;;;5030089;28;20057;-74
2022/10/23 04:34:07;;;;;;;21.75;7.07;;;21.40;99.90;;;;;;5023720;28;20068;-72
2022/10/23 04:36:33;;;;;;;18.92;6.57;;;21.50;99.90;;;;;;5040650;28;20045;-73
2022/10/23 04:38:59;;;;;;;14.82;5.85;;;21.50;99.90;;;;;;5027306;28;20029;-73
2022/10/23 04:41:24;;;;;;;21.45;6.07;;;21.40;99.90;;;;;;5037999;28;20029;-73
2022/10/23 04:43:50;;;;;;;18.58;6.07;;;21.40;99.90;;;;;;5034879;28;20066;-74
2022/10/23 04:46:16;;;;;;;12.43;4.97;;;21.40;99.90;;;;;;5029340;28;20048;-73
2022/10/23 04:48:42;;;;;;;19.27;6.45;;;21.30;99.90;;;;;;5011707;28;20029;-74
2022/10/23 04:51:09;;;;;;;17.33;5.28;;;21.30;99.90;;;;;;5008987;28;20052;-73
2022/10/23 04:53:35;;;;;;;16.15;5.40;;;21.30;99.90;;;;;;5013327;28;20045;-73
2022/10/23 04:56:01;;;;;;;18.88;5.57;;;21.40;99.90;;;;;;5027569;28;20038;-73
2022/10/23 04:58:28;;;;;;;18.17;5.50;;;21.40;99.90;;;;;;5021349;28;20048;-73
2022/10/23 05:00:53;;;;;;;;;;;21.40;99.90;;;;;;5030805;28;20091;-74
2022/10/23 05:03:21;;;;;;;20.35;5.50;;;21.40;99.90;;;;;;5011775;28;19921;-73
2022/10/23 05:05:47;;;;;;;18.70;6.40;;;21.30;99.90;;;;;;5024582;28;20497;-74
2022/10/23 05:08:13;;;;;;;18.55;6.05;;;21.40;99.90;;;;;;5037697;28;20119;-73
2022/10/23 05:10:40;;;;;;;18.17;5.35;;;21.40;99.90;;;;;;5042046;28;20041;-73
2022/10/23 05:13:06;;;;;;;15.02;4.93;;;21.40;99.90;;;;;;5022913;28;20434;-73
2022/10/23 05:15:32;;;;;;;18.25;6.00;;;21.40;99.90;;;;;;5023616;28;20042;-73
2022/10/23 05:18:09;;;;;;;21.27;6.63;;;21.40;99.90;;;;;;5037322;28;20052;-73
2022/10/23 05:20:36;;;;;;;15.85;6.47;;;21.40;99.90;;;;;;5022926;28;20480;-72
2022/10/23 05:23:07;;;;;;;17.52;6.13;;;21.50;99.90;;;;;;5023099;28;20048;-73
2022/10/23 05:25:34;;;;;;;20.00;6.72;;;21.50;99.90;;;;;;5019299;28;20037;-72
2022/10/23 05:27:59;;;;;;;;;;;21.50;99.90;;;;;;5037233;28;20052;-73
2022/10/23 05:30:25;;;;;;;17.92;6.03;;;21.40;99.90;;;;;;5022389;28;19921;-73
2022/10/23 05:32:51;;;;;;;17.67;5.70;;;21.40;99.90;;;;;;5015688;28;20048;-72
2022/10/23 05:35:22;;;;;;;15.95;5.60;;;21.40;99.90;;;;;;5044927;28;20044;-72
2022/10/23 05:37:49;;;;;;;12.38;5.45;;;21.40;99.90;;;;;;5034232;28;20461;-73
2022/10/23 05:40:16;;;;;;;13.93;5.97;;;21.30;99.90;;;;;;5032731;28;20413;-72
2022/10/23 05:42:43;;;;;;;15.75;5.43;;;21.30;99.90;;;;;;5027346;28;20050;-73
2022/10/23 05:45:09;;;;;;;11.45;4.10;;;21.40;99.90;;;;;;5028105;28;20056;-73
2022/10/23 05:47:35;;;;;;;13.40;5.20;;;21.30;99.90;;;;;;5034084;28;20040;-73
2022/10/23 05:50:01;;;;;;;14.15;5.10;;;21.30;99.90;;;;;;5028793;28;20032;-74
2022/10/23 05:52:27;;;;;;;14.98;4.95;;;21.30;99.90;;;;;;5024062;28;20041;-73
2022/10/23 05:54:52;;;;;;;11.48;4.60;;;21.30;99.90;;;;;;5032939;28;20588;-73
2022/10/23 05:57:18;;;;;;;10.07;3.97;;;21.20;99.90;;;;;;5026208;28;20460;-73
2022/10/23 05:59:44;;;;;;;10.77;4.28;;;21.20;99.90;;;;;;5040928;28;20033;-74
2022/10/23 06:02:10;;;;;;;10.20;4.07;;;21.20;99.90;;;;;;5030273;28;20033;-74
2022/10/23 06:04:36;;;;;;;14.43;4.85;;;21.20;99.90;;;;;;5031033;28;20061;-73
2022/10/23 06:07:02;;;;;;;14.23;4.50;;;21.10;99.90;;;;;;5032897;28;20049;-73
2022/10/23 06:09:28;;;;;;;11.70;4.05;;;21.10;99.90;;;;;;5026331;28;20057;-73
2022/10/23 06:11:54;;;;;;;13.10;4.80;;;21.10;99.90;;;;;;5026438;28;20037;-73
2022/10/23 06:14:21;;;;;;;11.82;5.10;;;21.10;99.90;;;;;;5032032;28;20037;-73
2022/10/23 06:16:46;;;;;;;14.77;4.70;;;21.10;99.90;;;;;;5030533;28;20028;-73
2022/10/23 06:19:13;;;;;;;9.02;4.10;;;21.10;99.90;;;;;;5032217;28;20122;-72
2022/10/23 06:21:39;;;;;;;11.35;4.30;;;21.10;99.90;;;;;;5046110;28;20025;-72
2022/10/23 06:24:07;;;;;;;15.25;5.80;;;21.10;99.90;;;;;;5037834;28;20048;-72
2022/10/23 06:26:33;;;;;;;15.65;6.40;;;21.10;99.90;;;;;;5048516;28;20026;-73
2022/10/23 06:28:59;;;;;;;15.57;6.22;;;21.10;99.90;;;;;;5031348;28;20033;-73
2022/10/23 06:31:27;;;;;;;16.60;6.55;;;21.10;99.90;;;;;;5035429;28;20099;-73
2022/10/23 06:33:57;;;;;;;12.32;5.13;;;21.10;99.90;;;;;;5041943;28;20030;-73
2022/10/23 06:36:24;;;;;;;13.35;5.63;;;21.10;99.90;;;;;;5033921;28;20033;-73
2022/10/23 06:38:50;;;;;;;;;;;21.20;99.90;;;;;;5029983;28;20040;-72
2022/10/23 06:41:19;;;;;;;12.52;5.20;;;21.20;99.90;;;;;;5048721;28;19975;-73
2022/10/23 06:43:50;;;;;;;12.40;4.95;;;21.30;99.90;;;;;;5046842;28;20037;-72
2022/10/23 06:46:17;;;;;;;11.63;4.45;;;21.30;99.90;;;;;;5031027;28;20052;-73
2022/10/23 06:48:43;;;;;;;14.98;4.90;;;21.30;99.90;;;;;;5020831;28;20034;-74
2022/10/23 06:51:11;;;;;;;14.85;6.00;;;21.30;99.90;;;;;;5036013;28;20121;-73
2022/10/23 06:53:37;;;;;;;11.57;5.03;;;21.30;99.90;;;;;;5043448;28;20145;-73
2022/10/23 06:56:06;;;;;;;13.13;5.22;;;21.30;99.90;;;;;;5026750;28;20041;-73
2022/10/23 06:58:33;;;;;;;14.20;4.95;;;21.40;99.90;;;;;;5027403;28;20527;-74
2022/10/23 07:01:04;;;;;;;9.32;4.47;;;21.40;99.90;;;;;;5020673;28;20030;-74
2022/10/23 07:03:30;;;;;;;9.57;4.65;;;21.40;99.90;;;;;;5032315;28;20057;-73
2022/10/23 07:06:00;;;;;;;12.52;5.07;;;21.40;99.90;;;;;;5032222;28;20030;-73
2022/10/23 07:08:27;;;;;;;18.42;5.53;;;21.50;99.90;;;;;;5027306;28;20052;-74
2022/10/23 07:10:52;;;;;;;16.45;5.35;;;21.60;99.90;;;;;;5029507;28;20037;-74
2022/10/23 07:13:18;;;;;;;18.25;5.78;;;21.60;99.90;;;;;;5025145;28;20037;-73
2022/10/23 07:15:44;;;;;;;13.82;5.22;;;21.70;99.90;;;;;;5025179;28;20091;-73
2022/10/23 07:18:16;;;;;;;10.98;5.15;;;21.80;99.90;;;;;;5026888;28;20041;-74
2022/10/23 07:20:42;;;;;;;15.65;5.45;;;21.90;99.90;;;;;;5028138;28;20039;-72
2022/10/23 07:23:11;;;;;;;13.90;5.50;;;22.00;99.90;;;;;;5034443;28;20037;-74
2022/10/23 07:25:37;;;;;;;21.33;5.63;;;22.10;99.90;;;;;;5032555;28;20387;-73
2022/10/23 07:28:04;;;;;;;12.98;5.07;;;22.20;99.90;;;;;;5011381;28;20052;-74
2022/10/23 07:30:30;;;;;;;;;;;22.20;99.90;;;;;;5024773;28;20773;-74
2022/10/23 07:32:56;;;;;;;16.25;5.85;;;22.30;99.90;;;;;;5028946;28;20712;-73
2022/10/23 07:35:21;;;;;;;16.83;5.47;;;22.40;99.90;;;;;;5043245;28;20041;-72
2022/10/23 07:37:48;;;;;;;18.15;5.85;;;22.30;99.90;;;;;;5033509;28;20476;-74
2022/10/23 07:40:14;;;;;;;18.77;6.47;;;22.30;99.90;;;;;;5022799;28;20119;-73
2022/10/23 07:42:39;;;;;;;20.70;6.10;;;22.40;99.90;;;;;;5023757;28;20044;-75
2022/10/23 07:45:07;;;;;;;17.60;5.78;;;22.30;99.90;;;;;;5025745;28;20038;-74
2022/10/23 07:47:33;;;;;;;18.00;6.60;;;22.40;99.90;;;;;;5027452;28;20108;-74
2022/10/23 07:49:59;;;;;;;15.43;6.07;;;22.40;99.90;;;;;;5031218;28;20472;-73
2022/10/23 07:52:25;;;;;;;17.92;6.22;;;22.40;99.90;;;;;;5033614;28;20045;-74
2022/10/23 07:54:51;;;;;;;19.80;6.18;;;22.20;99.90;;;;;;5010121;28;20040;-73
2022/10/23 07:57:17;;;;;;;18.75;6.40;;;22.20;99.90;;;;;;5009723;28;20136;-74
2022/10/23 07:59:43;;;;;;;16.90;5.80;;;22.30;99.90;;;;;;5039075;28;20117;-75
2022/10/23 08:02:11;;;;;;;18.20;5.78;;;22.40;99.90;;;;;;5042020;28;20039;-74
2022/10/23 08:04:37;;;;;;;22.00;7.05;;;22.50;99.90;;;;;;5030489;28;20029;-74
2022/10/23 08:07:03;;;;;;;18.88;6.15;;;22.50;99.90;;;;;;5030452;28;20357;-74
2022/10/23 08:09:29;;;;;;;18.83;6.10;;;22.60;99.90;;;;;;5023626;28;20037;-73
2022/10/23 08:11:54;;;;;;;16.88;5.28;;;22.70;99.90;;;;;;5028556;28;20038;-73
2022/10/23 08:14:20;;;;;;;18.65;6.22;;;22.70;99.90;;;;;;5036618;28;20037;-73
2022/10/23 08:16:47;;;;;;;18.70;5.28;;;23.00;99.90;;;;;;5029240;28;20029;-73
2022/10/23 08:19:14;;;;;;;20.83;5.43;;;23.70;99.90;;;;;;5030864;28;20416;-74
2022/10/23 08:21:40;;;;;;;12.38;4.78;;;23.40;99.90;;;;;;5029033;28;20448;-73
2022/10/23 08:24:06;;;;;;;16.15;4.85;;;23.40;99.90;;;;;;5023117;28;20040;-72
2022/10/23 08:26:33;;;;;;;18.80;5.22;;;23.20;99.90;;;;;;5023766;28;20117;-75
2022/10/23 08:28:59;;;;;;;19.33;5.10;;;23.30;99.90;;;;;;5037367;28;20534;-74
2022/10/23 08:31:25;;;;;;;;;;;23.40;99.90;;;;;;5033033;28;20045;-73
2022/10/23 08:33:51;;;;;;;22.38;4.82;;;23.50;99.90;;;;;;5027055;28;20449;-73
2022/10/23 08:36:23;;;;;;;20.30;4.95;;;23.20;99.90;;;;;;5022595;28;20049;-75
2022/10/23 08:38:54;;;;;;;15.52;5.20;;;23.40;99.90;;;;;;5023915;28;20201;-74
2022/10/23 08:41:36;;;;;;;19.00;5.47;;;23.60;99.90;;;;;;5029325;28;20048;-73
2022/10/23 08:44:35;;;;;;;19.73;4.82;;;23.80;99.90;;;;;;5018407;28;20037;-75
2022/10/23 08:47:36;;;;;;;16.13;5.32;;;23.80;99.90;;;;;;5008761;28;20033;-74
2022/10/23 08:50:24;;;;;;;15.57;5.82;;;23.70;99.90;;;;;;4955995;28;20044;-73
2022/10/23 08:52:59;;;;;;;15.82;4.75;;;23.80;99.90;;;;;;5018621;28;20042;-74
2022/10/23 08:55:38;;;;;;;17.13;5.28;;;24.10;99.90;;;;;;5004541;28;20092;-72
2022/10/23 08:58:30;;;;;;;19.35;5.97;;;24.20;99.90;;;;;;5023693;28;20038;-72
2022/10/23 09:00:58;;;;;;;15.90;6.00;;;24.10;99.90;;;;;;5017168;28;20440;-71
2022/10/23 09:03:26;;;;;;;18.13;5.40;;;24.00;99.90;;;;;;4999278;28;20057;-73
2022/10/23 09:06:15;;;;;;;16.25;5.65;;;24.10;99.90;;;;;;5035696;28;20205;-72
2022/10/23 09:08:44;;;;;;;18.20;5.95;;;23.90;99.90;;;;;;5024902;28;20543;-72
2022/10/23 09:11:11;;;;;;;18.38;5.53;;;24.10;99.90;;;;;;5012837;28;20148;-72
2022/10/23 09:14:08;;;;;;;21.38;5.13;;;24.30;99.90;;;;;;5025478;28;20033;-72
2022/10/23 09:16:43;;;;;;;17.27;6.03;;;24.20;99.90;;;;;;5032800;28;20050;-72
2022/10/23 09:19:18;;;;;;;18.67;6.38;;;24.00;99.90;;;;;;5039155;28;20048;-72
2022/10/23 09:21:48;;;;;;;15.38;5.72;;;24.00;99.90;;;;;;5019478;28;20124;-71
2022/10/23 09:24:19;;;;;;;19.42;7.10;;;24.00;99.90;;;;;;5018878;28;20048;-72
2022/10/23 09:26:50;;;;;;;23.40;6.25;;;24.10;99.90;;;;;;5024035;28;20091;-71
2022/10/23 09:29:28;;;;;;;16.45;6.35;;;24.10;99.90;;;;;;4991291;28;20086;-72
2022/10/23 09:31:57;;;;;;;17.23;5.88;;;24.30;99.90;;;;;;5037361;28;20044;-72
2022/10/23 09:34:27;;;;;;;16.60;6.53;;;24.40;99.90;;;;;;5036518;28;20078;-72
2022/10/23 09:37:01;;;;;;;16.90;5.82;;;24.20;99.90;;;;;;5029666;28;20048;-72
2022/10/23 09:39:33;;;;;;;15.07;6.10;;;24.00;99.90;;;;;;5026593;28;20113;-72
2022/10/23 09:42:03;;;;;;;19.77;5.65;;;24.00;99.90;;;;;;5000723;28;20037;-72
2022/10/23 09:44:31;;;;;;;15.43;5.78;;;24.20;99.90;;;;;;5013223;28;20095;-72
2022/10/23 09:47:10;;;;;;;18.02;5.53;;;24.30;99.90;;;;;;5014395;28;20030;-73
2022/10/23 09:49:48;;;;;;;21.27;6.43;;;24.50;99.90;;;;;;5014700;28;20038;-72
2022/10/23 09:52:17;;;;;;;17.42;5.57;;;24.50;99.90;;;;;;5028953;28;20037;-71
2022/10/23 09:54:52;;;;;;;18.33;5.75;;;24.60;99.90;;;;;;5025021;28;20089;-72
2022/10/23 09:57:41;;;;;;;15.98;5.63;;;24.70;99.90;;;;;;5035087;28;20129;-72
2022/10/23 10:00:13;;;;;;;17.67;5.93;;;24.50;99.90;;;;;;5008714;28;20051;-72
2022/10/23 10:02:41;;;;;;;21.77;6.82;;;24.30;99.90;;;;;;5015395;28;20041;-72
2022/10/23 10:05:23;;;;;;;17.25;5.72;;;24.20;99.90;;;;;;5022467;28;20029;-72
2022/10/23 10:08:00;;;;;;;23.83;6.65;;;24.10;99.90;;;;;;5038295;28;20075;-72
2022/10/23 10:10:33;;;;;;;17.80;5.47;;;24.10;99.90;;;;;;5003407;28;20583;-71
2022/10/23 10:13:09;;;;;;;17.33;5.82;;;24.00;99.90;;;;;;5007615;28;20039;-72
2022/10/23 10:15:51;;;;;;;15.55;5.93;;;24.00;99.90;;;;;;5014627;28;20124;-72
2022/10/23 10:18:44;;;;;;;16.45;6.07;;;23.90;99.90;;;;;;5015032;28;20073;-72
2022/10/23 10:21:30;;;;;;;15.98;5.45;;;23.70;99.90;;;;;;5021081;28;20045;-72
2022/10/23 10:24:01;;;;;;;22.60;6.22;;;23.60;99.90;;;;;;5023352;28;20033;-72
2022/10/23 10:26:57;;;;;;;23.25;6.43;;;23.80;99.90;;;;;;5020827;28;20033;-72
2022/10/23 10:29:32;;;;;;;23.00;6.38;;;24.00;99.90;;;;;;5031428;28;20494;-72
2022/10/23 10:32:21;;;;;;;22.33;6.28;;;24.10;99.90;;;;;;5030066;28;20045;-73
2022/10/23 10:35:18;;;;;;;18.02;5.90;;;24.10;99.90;;;;;;5021280;28;20037;-72
2022/10/23 10:37:58;;;;;;;22.60;6.43;;;24.10;99.90;;;;;;5029323;28;20405;-72
2022/10/23 10:40:58;;;;;;;20.58;6.05;;;24.00;99.90;;;;;;5026681;28;20073;-72
2022/10/23 10:43:42;;;;;;;17.00;6.38;;;24.00;99.90;;;;;;5018763;28;20103;-72
2022/10/23 10:46:37;;;;;;;18.02;5.45;;;24.20;99.90;;;;;;5017290;28;20042;-72
2022/10/23 10:49:14;;;;;;;15.70;5.93;;;23.90;99.90;;;;;;5038354;28;20044;-72
2022/10/23 10:51:58;;;;;;;15.77;6.18;;;23.50;99.90;;;;;;5045912;28;20032;-72
2022/10/23 10:54:39;;;;;;;18.85;6.38;;;23.60;99.90;;;;;;5023599;28;20519;-71
2022/10/23 10:57:25;;;;;;;19.33;5.90;;;23.80;99.90;;;;;;5039088;28;20127;-72
2022/10/23 10:59:54;;;;;;;14.93;5.90;;;23.70;99.90;;;;;;5025367;28;20080;-71
2022/10/23 11:02:42;;;;;;;20.80;6.43;;;23.90;99.90;;;;;;5008140;28;20120;-72
2022/10/23 11:05:37;;;;;;;23.63;6.80;;;24.10;99.90;;;;;;5040123;28;20208;-72
2022/10/23 11:08:12;;;;;;;18.23;6.95;;;24.00;99.90;;;;;;5007855;28;20448;-71
2022/10/23 11:10:42;;;;;;;16.10;6.07;;;23.90;99.90;;;;;;5012273;28;20388;-71
2022/10/23 11:13:39;;;;;;;18.02;6.38;;;23.90;99.90;;;;;;5029013;28;20058;-72
2022/10/23 11:16:49;;;;;;;22.00;7.28;;;23.60;99.90;;;;;;5016730;28;20042;-72
2022/10/23 11:19:32;;;;;;;25.88;7.05;;;23.60;99.90;;;;;;5007519;28;20049;-73
2022/10/23 11:22:29;;;;;;;19.48;7.50;;;23.50;99.90;;;;;;5022433;28;20075;-72
2022/10/23 11:25:24;;;;;;;21.02;7.00;;;23.60;99.90;;;;;;5022493;28;20042;-72
2022/10/23 11:28:15;;;;;;;16.67;6.03;;;23.90;99.90;;;;;;5003604;28;20037;-72
2022/10/23 11:31:03;;;;;;;20.77;6.00;;;23.90;99.90;;;;;;5039592;28;20113;-72
2022/10/23 11:33:38;;;;;;;26.00;7.25;;;23.90;99.90;;;;;;5029710;28;20393;-72
2022/10/23 11:36:48;;;;;;;19.55;7.45;;;24.10;99.90;;;;;;5024191;28;20041;-73
2022/10/23 11:39:36;;;;;;;18.20;6.93;;;24.30;99.90;;;;;;5017132;28;20429;-73
2022/10/23 11:42:04;;;;;;;19.45;6.75;;;24.00;99.90;;;;;;5025812;28;20643;-73
2022/10/23 11:44:33;;;;;;;20.70;6.53;;;24.10;99.90;;;;;;5004896;28;20779;-72
2022/10/23 11:47:06;;;;;;;21.73;6.85;;;24.40;99.90;;;;;;5025799;28;20033;-72
2022/10/23 11:49:31;;;;;;;19.60;6.32;;;24.50;99.90;;;;;;5021381;28;20040;-72
2022/10/23 11:52:02;;;;;;;22.42;7.13;;;24.70;99.90;;;;;;5031096;28;20036;-73
2022/10/23 11:54:28;;;;;;;19.50;6.70;;;24.50;99.90;;;;;;5022314;28;20029;-73
2022/10/23 11:57:06;;;;;;;21.33;6.85;;;24.30;99.90;;;;;;5027597;28;20044;-73
2022/10/23 11:59:48;;;;;;;18.48;7.38;;;24.00;99.90;;;;;;5045478;28;20420;-72
2022/10/23 12:02:30;;;;;;;18.40;6.40;;;23.80;99.90;;;;;;5023860;28;20109;-72
2022/10/23 12:05:07;;;;;;;23.50;6.72;;;23.80;99.90;;;;;;5028017;28;20042;-72
2022/10/23 12:07:39;;;;;;;20.42;6.93;;;23.60;99.90;;;;;;5026430;28;20138;-73
2022/10/23 12:10:19;;;;;;;26.52;7.40;;;23.70;99.90;;;;;;5018754;28;20091;-72
2022/10/23 12:12:55;;;;;;;21.88;7.63;;;23.70;99.90;;;;;;5034262;28;20120;-72
2022/10/23 12:15:25;;;;;;;21.42;7.05;;;23.80;99.90;;;;;;5029178;28;20107;-74
2022/10/23 12:17:53;;;;;;;23.23;6.68;;;23.90;99.90;;;;;;5021328;28;20478;-71
2022/10/23 12:20:41;;;;;;;22.65;7.03;;;23.90;99.90;;;;;;5022181;28;20049;-72
2022/10/23 12:23:35;;;;;;;18.70;6.50;;;24.00;99.90;;;;;;5016913;28;20033;-72
2022/10/23 12:26:03;;;;;;;20.60;7.85;;;24.10;99.90;;;;;;5024494;28;20084;-72
2022/10/23 12:28:58;;;;;;;22.27;7.60;;;24.30;99.90;;;;;;5024939;28;20049;-72
2022/10/23 12:31:42;;;;;;;19.67;6.70;;;24.30;99.90;;;;;;4995629;28;20045;-72
2022/10/23 12:34:51;;;;;;;20.58;6.82;;;24.50;99.90;;;;;;5018532;28;20037;-72
2022/10/23 12:37:39;;;;;;;20.42;7.03;;;24.80;99.90;;;;;;4983615;28;20065;-72
2022/10/23 12:40:08;;;;;;;18.00;6.15;;;25.00;99.90;;;;;;5023114;28;20136;-73
2022/10/23 12:42:35;;;;;;;23.63;6.88;;;25.20;99.90;;;;;;5006426;28;20109;-74
2022/10/23 12:45:13;;;;;;;24.85;6.65;;;25.00;99.90;;;;;;5044463;28;20037;-72
2022/10/23 12:47:39;;;;;;;19.98;6.97;;;25.20;99.90;;;;;;5023598;28;20117;-72
2022/10/23 12:50:27;;;;;;;19.92;6.88;;;25.30;99.90;;;;;;5027613;28;20423;-73
2022/10/23 12:53:01;;;;;;;17.00;6.72;;;25.00;99.90;;;;;;5028227;28;20037;-73
2022/10/23 12:55:31;;;;;;;18.83;6.75;;;24.70;99.90;;;;;;5015259;28;20140;-72
2022/10/23 12:57:58;;;;;;;24.15;7.15;;;24.80;99.90;;;;;;5035047;28;20030;-72
2022/10/23 13:00:24;;;;;;;23.48;7.03;;;24.90;99.90;;;;;;5038534;28;20041;-72
2022/10/23 13:03:02;;;;;;;21.20;6.93;;;25.10;99.90;;;;;;5024137;28;20044;-72
2022/10/23 13:05:29;;;;;;;22.67;7.15;;;25.20;99.90;;;;;;5029867;28;20041;-72
2022/10/23 13:07:57;;;;;;;19.65;6.43;;;25.30;99.90;;;;;;5025164;28;20639;-73